Time;durP1;ratioP1;P1;durP2;ratioP2;P2;SDS_P1;SDS_P2;PMS_P1;PMS_P2;Temp;Humidity;BMP_temperature;BMP_pressure;BME280_temperature;BME280_humidity;BME280_pressure;Samples;Min_cycle;Max_cycle;Signal;HPM_P1;HPM_P2
2022/10/31 00:02:05;;;;;;;1.65;1.30;;;11.90;99.90;;;;;;4895853;29;20532;-73
2022/10/31 00:04:31;;;;;;;1.70;1.25;;;11.50;99.90;;;;;;4883140;29;20047;-73
2022/10/31 00:06:57;;;;;;;1.52;1.20;;;11.50;99.90;;;;;;4880371;29;20048;-74
2022/10/31 00:09:22;;;;;;;2.05;1.40;;;11.60;99.90;;;;;;4896685;29;20048;-73
2022/10/31 00:11:48;;;;;;;2.30;1.38;;;11.40;99.90;;;;;;4895174;29;20460;-73
2022/10/31 00:14:14;;;;;;;1.48;1.27;;;11.60;99.90;;;;;;4882768;29;20047;-74
2022/10/31 00:16:41;;;;;;;2.10;1.20;;;11.70;99.90;;;;;;4894593;29;20054;-73
2022/10/31 00:19:07;;;;;;;1.58;1.30;;;11.50;99.90;;;;;;4863441;29;20126;-73
2022/10/31 00:21:34;;;;;;;1.85;1.30;;;11.40;99.90;;;;;;4880953;29;20225;-74
2022/10/31 00:23:59;;;;;;;;;;;11.60;99.90;;;;;;4883776;29;20053;-81
2022/10/31 00:26:28;;;;;;;2.63;1.60;;;11.90;99.90;;;;;;4883408;29;19925;-81
2022/10/31 00:28:54;;;;;;;2.03;1.63;;;11.40;99.90;;;;;;4895295;29;20058;-81
2022/10/31 00:31:19;;;;;;;1.98;1.50;;;11.80;99.90;;;;;;4898660;29;20040;-81
2022/10/31 00:33:45;;;;;;;1.88;1.35;;;11.40;99.90;;;;;;4883159;29;20048;-81
2022/10/31 00:36:16;;;;;;;1.92;1.50;;;11.50;99.90;;;;;;4898369;29;20413;-81
2022/10/31 00:38:43;;;;;;;2.17;1.48;;;11.50;99.90;;;;;;4897425;29;20135;-82
2022/10/31 00:41:09;;;;;;;2.25;1.65;;;11.80;99.90;;;;;;4897785;29;20452;-82
2022/10/31 00:43:35;;;;;;;2.47;1.90;;;11.70;99.90;;;;;;4897245;29;20059;-81
2022/10/31 00:46:01;;;;;;;2.08;1.70;;;11.20;99.90;;;;;;4896860;29;20055;-74
2022/10/31 00:48:27;;;;;;;2.40;1.80;;;11.70;99.90;;;;;;4913603;29;20107;-73
2022/10/31 00:50:53;;;;;;;2.72;2.00;;;11.10;99.90;;;;;;4913397;29;20048;-74
2022/10/31 00:53:19;;;;;;;2.88;1.80;;;11.30;99.90;;;;;;4896895;29;20043;-74
2022/10/31 00:55:45;;;;;;;2.40;1.80;;;11.20;99.90;;;;;;4897796;29;20401;-75
2022/10/31 00:58:11;;;;;;;2.53;1.60;;;11.60;99.90;;;;;;4889789;29;20048;-74
2022/10/31 01:00:36;;;;;;;2.55;1.60;;;11.10;99.90;;;;;;4886844;29;20047;-74
2022/10/31 01:03:02;;;;;;;1.83;1.45;;;11.50;99.90;;;;;;4882138;29;20055;-74
2022/10/31 01:05:28;;;;;;;1.85;1.48;;;11.00;99.90;;;;;;4897187;29;20048;-74
2022/10/31 01:07:54;;;;;;;1.58;1.20;;;11.40;99.90;;;;;;4885522;29;20409;-73
2022/10/31 01:10:19;;;;;;;2.10;1.60;;;11.00;99.90;;;;;;4906357;29;20048;-73
2022/10/31 01:12:47;;;;;;;1.88;1.27;;;11.00;99.90;;;;;;4901206;29;20130;-73
2022/10/31 01:15:14;;;;;;;1.92;1.40;;;11.00;99.90;;;;;;4917303;29;20141;-74
2022/10/31 01:17:40;;;;;;;1.88;1.40;;;11.30;99.90;;;;;;4907077;29;20076;-73
2022/10/31 01:20:08;;;;;;;2.13;1.70;;;10.90;99.90;;;;;;4907800;29;20103;-73
2022/10/31 01:22:34;;;;;;;2.65;1.67;;;11.20;99.90;;;;;;4913214;29;20097;-73
2022/10/31 01:25:00;;;;;;;2.03;1.45;;;10.90;99.90;;;;;;4864120;29;20088;-74
2022/10/31 01:27:26;;;;;;;2.10;1.50;;;11.20;99.90;;;;;;4886135;29;20057;-73
2022/10/31 01:29:51;;;;;;;1.63;1.50;;;10.90;99.90;;;;;;4870515;29;20374;-74
2022/10/31 01:32:17;;;;;;;2.20;1.67;;;11.60;99.90;;;;;;4861518;29;20123;-73
2022/10/31 01:34:43;;;;;;;2.33;1.77;;;10.90;99.90;;;;;;4878272;29;20044;-73
2022/10/31 01:37:08;;;;;;;1.52;1.33;;;11.40;99.90;;;;;;4878637;29;20184;-74
2022/10/31 01:39:34;;;;;;;1.92;1.40;;;10.90;99.90;;;;;;4878527;29;20059;-81
2022/10/31 01:42:00;;;;;;;1.60;1.17;;;11.10;99.90;;;;;;4879783;29;20053;-81
2022/10/31 01:44:26;;;;;;;2.20;1.60;;;11.40;99.90;;;;;;4895026;29;20056;-81
2022/10/31 01:46:59;;;;;;;1.70;1.42;;;10.90;99.90;;;;;;4895167;29;20519;-81
2022/10/31 01:49:39;;;;;;;1.55;1.20;;;11.30;99.90;;;;;;4894803;29;20052;-81
2022/10/31 01:52:26;;;;;;;2.28;1.80;;;10.90;99.90;;;;;;4896153;29;20041;-82
2022/10/31 01:55:14;;;;;;;1.40;1.10;;;11.30;99.90;;;;;;4898242;29;20066;-81
2022/10/31 01:57:44;;;;;;;1.88;1.20;;;11.20;99.90;;;;;;4889143;29;20052;-81
2022/10/31 02:00:11;;;;;;;1.77;1.30;;;11.00;99.90;;;;;;4882922;29;20104;-82
2022/10/31 02:02:37;;;;;;;1.63;1.30;;;11.40;99.90;;;;;;4895420;29;20116;-81
2022/10/31 02:05:07;;;;;;;1.58;1.25;;;11.30;99.90;;;;;;4880462;29;20103;-81
2022/10/31 02:07:39;;;;;;;2.13;1.48;;;11.00;99.90;;;;;;4896757;29;20048;-81
2022/10/31 02:10:05;;;;;;;2.33;1.80;;;11.40;99.90;;;;;;4894175;29;20055;-81
2022/10/31 02:12:32;;;;;;;1.83;1.50;;;10.80;99.90;;;;;;4880694;29;20051;-81
2022/10/31 02:14:59;;;;;;;1.60;1.38;;;11.00;99.90;;;;;;4883408;29;20060;-81
2022/10/31 02:17:25;;;;;;;1.55;1.08;;;10.70;99.90;;;;;;4881045;29;20532;-82
2022/10/31 02:20:03;;;;;;;1.67;1.25;;;10.80;99.90;;;;;;4881342;29;20045;-81
2022/10/31 02:22:34;;;;;;;1.50;1.20;;;11.30;99.90;;;;;;4895872;29;20052;-82
2022/10/31 02:25:26;;;;;;;2.67;1.20;;;11.30;99.90;;;;;;4864856;29;20045;-81
2022/10/31 02:27:52;;;;;;;1.98;1.30;;;11.00;99.90;;;;;;4885073;29;20065;-81
2022/10/31 02:30:24;;;;;;;1.30;1.10;;;11.20;99.90;;;;;;4885238;29;20052;-82
2022/10/31 02:32:50;;;;;;;1.20;0.95;;;10.80;99.90;;;;;;4895461;29;20051;-82
2022/10/31 02:35:29;;;;;;;1.70;1.30;;;10.60;99.90;;;;;;4897162;29;20041;-81
2022/10/31 02:38:13;;;;;;;1.90;1.52;;;10.90;99.90;;;;;;4896079;29;20556;-81
2022/10/31 02:40:58;;;;;;;2.33;1.50;;;10.80;99.90;;;;;;4878777;29;20186;-81
2022/10/31 02:43:36;;;;;;;2.78;1.73;;;10.80;99.90;;;;;;4881116;29;20209;-81
2022/10/31 02:46:27;;;;;;;2.35;1.50;;;10.70;99.90;;;;;;4897205;29;20404;-81
2022/10/31 02:48:58;;;;;;;1.80;1.30;;;10.60;99.90;;;;;;4895564;29;20048;-82
2022/10/31 02:51:24;;;;;;;2.50;1.90;;;11.20;99.90;;;;;;4896796;29;20587;-81
2022/10/31 02:53:50;;;;;;;1.98;1.50;;;11.10;99.90;;;;;;4897066;29;20124;-81
2022/10/31 02:56:19;;;;;;;2.42;1.48;;;10.80;99.90;;;;;;4896144;29;20045;-81
2022/10/31 02:58:54;;;;;;;2.15;1.50;;;11.10;99.90;;;;;;4896153;29;20052;-81
2022/10/31 03:02:01;;;;;;;1.90;1.40;;;10.90;99.90;;;;;;4895956;29;20051;-81
2022/10/31 03:04:44;;;;;;;2.67;1.60;;;10.40;99.90;;;;;;4807430;29;20050;-82
2022/10/31 03:07:34;;;;;;;1.30;1.20;;;11.00;99.90;;;;;;4892590;29;20059;-81
2022/10/31 03:10:29;;;;;;;1.65;1.20;;;10.30;99.90;;;;;;4895120;29;20052;-74
2022/10/31 03:13:09;;;;;;;1.73;1.30;;;10.30;99.90;;;;;;4895619;29;20069;-74
2022/10/31 03:15:40;;;;;;;2.10;1.40;;;10.90;99.90;;;;;;4894902;29;20041;-74
2022/10/31 03:18:15;;;;;;;2.00;1.60;;;10.50;99.90;;;;;;4867113;29;20396;-74
2022/10/31 03:20:52;;;;;;;2.80;2.00;;;10.30;99.90;;;;;;4895016;29;20047;-74
2022/10/31 03:23:19;;;;;;;2.70;2.15;;;10.60;99.90;;;;;;4895928;29;20048;-74
2022/10/31 03:25:47;;;;;;;2.90;2.33;;;10.60;99.90;;;;;;4894429;29;20062;-74
2022/10/31 03:28:18;;;;;;;2.97;2.10;;;10.80;99.90;;;;;;4901971;29;20070;-74
2022/10/31 03:30:45;;;;;;;3.45;2.28;;;10.80;99.90;;;;;;4890002;29;20084;-74
2022/10/31 03:33:16;;;;;;;2.75;2.05;;;10.50;99.90;;;;;;4882892;29;20047;-74
2022/10/31 03:35:44;;;;;;;2.25;1.73;;;10.20;99.90;;;;;;4872436;29;20048;-74
2022/10/31 03:38:11;;;;;;;2.67;1.75;;;10.50;99.90;;;;;;4882317;29;20103;-74
2022/10/31 03:40:40;;;;;;;2.40;1.45;;;10.70;99.90;;;;;;4896893;29;20048;-74
2022/10/31 03:43:30;;;;;;;1.70;1.40;;;10.80;99.90;;;;;;4905067;29;20044;-74
2022/10/31 03:45:56;;;;;;;2.05;1.52;;;10.10;99.90;;;;;;4898739;29;20065;-73
2022/10/31 03:48:22;;;;;;;;;;;10.10;99.90;;;;;;4891537;29;20048;-73
2022/10/31 03:51:13;;;;;;;3.03;2.10;;;10.50;99.90;;;;;;4879894;29;19931;-74
2022/10/31 03:53:45;;;;;;;2.97;2.05;;;10.60;99.90;;;;;;4873328;29;20048;-74
2022/10/31 03:56:36;;;;;;;2.72;2.03;;;10.00;99.90;;;;;;4897967;29;20050;-74
2022/10/31 03:59:12;;;;;;;3.13;1.83;;;10.00;99.90;;;;;;4899944;29;20047;-74
2022/10/31 04:01:41;;;;;;;2.30;1.90;;;10.30;99.90;;;;;;4901205;29;20507;-73
2022/10/31 04:04:07;;;;;;;2.67;1.70;;;10.60;99.90;;;;;;4890900;29;20055;-74
2022/10/31 04:06:36;;;;;;;3.03;1.60;;;9.90;99.90;;;;;;4897868;29;20391;-74
2022/10/31 04:09:05;;;;;;;2.13;1.70;;;9.90;99.90;;;;;;4893628;29;20044;-74
2022/10/31 04:11:35;;;;;;;2.55;1.77;;;10.60;99.90;;;;;;4879760;29;20481;-73
2022/10/31 04:14:03;;;;;;;2.03;1.80;;;10.40;99.90;;;;;;4878950;29;20036;-74
2022/10/31 04:16:29;;;;;;;1.75;1.40;;;10.50;99.90;;;;;;4896817;29;20195;-73
2022/10/31 04:18:55;;;;;;;1.80;1.50;;;10.40;99.90;;;;;;4895119;29;20079;-73
2022/10/31 04:21:28;;;;;;;2.40;1.63;;;10.10;99.90;;;;;;4893630;29;20051;-74
2022/10/31 04:23:54;;;;;;;2.35;1.63;;;9.60;99.90;;;;;;4898555;29;20044;-74
2022/10/31 04:26:19;;;;;;;2.30;1.90;;;10.20;99.90;;;;;;4867941;29;20058;-73
2022/10/31 04:28:45;;;;;;;1.73;1.40;;;10.20;99.90;;;;;;4881839;29;20127;-73
2022/10/31 04:31:11;;;;;;;3.08;2.20;;;9.70;99.90;;;;;;4912345;29;20044;-73
2022/10/31 04:33:37;;;;;;;3.17;2.45;;;9.60;99.90;;;;;;4912913;29;20489;-73
2022/10/31 04:36:04;;;;;;;2.30;1.90;;;9.60;99.90;;;;;;4912317;29;20047;-73
2022/10/31 04:38:30;;;;;;;2.00;1.60;;;9.70;99.90;;;;;;4912773;29;20563;-73
2022/10/31 04:40:56;;;;;;;2.20;1.40;;;9.50;99.90;;;;;;4912413;29;20052;-73
2022/10/31 04:43:22;;;;;;;1.80;1.38;;;10.10;99.90;;;;;;4913053;29;20866;-73
2022/10/31 04:45:47;;;;;;;2.40;1.85;;;9.40;99.90;;;;;;4895909;29;20043;-74
2022/10/31 04:48:13;;;;;;;3.53;2.35;;;10.10;99.90;;;;;;4881724;29;20040;-74
2022/10/31 04:50:39;;;;;;;3.00;2.10;;;10.10;99.90;;;;;;4882411;29;20044;-73
2022/10/31 04:53:05;;;;;;;2.40;2.00;;;10.20;99.90;;;;;;4897014;29;20480;-73
2022/10/31 04:55:31;;;;;;;2.25;1.92;;;9.70;99.90;;;;;;4912619;29;20496;-73
2022/10/31 04:57:57;;;;;;;2.60;2.10;;;9.70;99.90;;;;;;4913398;29;20054;-73
2022/10/31 05:00:23;;;;;;;2.35;1.98;;;9.90;99.90;;;;;;4891620;29;20460;-73
2022/10/31 05:02:51;;;;;;;2.10;1.50;;;10.20;99.90;;;;;;4897705;29;20047;-73
2022/10/31 05:05:19;;;;;;;1.80;1.45;;;10.30;99.90;;;;;;4896315;29;20353;-73
2022/10/31 05:07:46;;;;;;;2.42;1.75;;;10.00;99.90;;;;;;4896399;29;20504;-73
2022/10/31 05:10:16;;;;;;;2.30;1.80;;;9.50;99.90;;;;;;4898014;29;20111;-74
2022/10/31 05:13:08;;;;;;;2.67;1.90;;;9.50;99.90;;;;;;4895841;29;20048;-73
2022/10/31 05:15:34;;;;;;;2.03;1.80;;;9.60;99.90;;;;;;4906378;29;20094;-73
2022/10/31 05:18:00;;;;;;;3.10;1.98;;;9.40;99.90;;;;;;4895942;29;20044;-73
2022/10/31 05:20:29;;;;;;;2.67;1.73;;;10.10;99.90;;;;;;4881773;29;20051;-73
2022/10/31 05:22:56;;;;;;;2.83;1.90;;;9.50;99.90;;;;;;4895610;29;20390;-74
2022/10/31 05:25:26;;;;;;;1.95;1.40;;;9.50;99.90;;;;;;4897888;29;20119;-73
2022/10/31 05:27:53;;;;;;;2.00;1.70;;;9.90;99.90;;;;;;4897123;29;20060;-75
2022/10/31 05:30:21;;;;;;;2.45;1.70;;;10.10;99.90;;;;;;4895104;29;20058;-75
2022/10/31 05:32:49;;;;;;;1.63;1.40;;;9.70;99.90;;;;;;4900538;29;20043;-76
2022/10/31 05:35:35;;;;;;;2.08;1.23;;;9.40;99.90;;;;;;4883684;29;20082;-75
2022/10/31 05:38:00;;;;;;;1.90;1.52;;;9.90;99.90;;;;;;4880465;29;20448;-75
2022/10/31 05:40:27;;;;;;;1.60;1.40;;;9.50;99.90;;;;;;4883282;29;20043;-72
2022/10/31 05:42:54;;;;;;;1.70;1.23;;;10.00;99.90;;;;;;4900009;29;20496;-73
2022/10/31 05:45:21;;;;;;;1.65;1.40;;;9.40;99.90;;;;;;4900656;29;20122;-74
2022/10/31 05:47:54;;;;;;;2.03;1.70;;;9.90;99.90;;;;;;4910914;29;20058;-74
2022/10/31 05:50:20;;;;;;;1.95;1.70;;;9.50;99.90;;;;;;4903212;29;20048;-73
2022/10/31 05:52:46;;;;;;;2.47;1.80;;;9.60;99.90;;;;;;4883658;29;20095;-71
2022/10/31 05:55:12;;;;;;;2.28;1.75;;;9.30;99.90;;;;;;4894103;29;20041;-71
2022/10/31 05:57:38;;;;;;;1.98;1.55;;;10.10;99.90;;;;;;4881934;29;20047;-73
2022/10/31 06:00:05;;;;;;;1.70;1.60;;;9.70;99.90;;;;;;4885809;29;20048;-72
2022/10/31 06:02:34;;;;;;;1.40;1.30;;;9.30;99.90;;;;;;4904976;29;20044;-72
2022/10/31 06:05:00;;;;;;;2.10;1.70;;;9.30;99.90;;;;;;4903311;29;20081;-71
2022/10/31 06:07:27;;;;;;;1.67;1.40;;;10.10;99.90;;;;;;4872047;29;20086;-72
2022/10/31 06:09:52;;;;;;;1.88;1.50;;;9.90;99.90;;;;;;4898596;29;20048;-74
2022/10/31 06:12:18;;;;;;;1.95;1.52;;;9.80;99.90;;;;;;4904680;29;20095;-71
2022/10/31 06:14:44;;;;;;;2.35;1.60;;;10.00;99.90;;;;;;4898960;29;20037;-72
2022/10/31 06:17:09;;;;;;;1.60;1.30;;;9.30;99.90;;;;;;4899906;29;20066;-71
2022/10/31 06:19:35;;;;;;;1.92;1.50;;;9.20;99.90;;;;;;4890821;29;20488;-72
2022/10/31 06:22:00;;;;;;;1.95;1.50;;;9.20;99.90;;;;;;4919200;29;20044;-72
2022/10/31 06:24:26;;;;;;;1.52;1.30;;;10.00;99.90;;;;;;4884221;29;20134;-72
2022/10/31 06:26:52;;;;;;;1.73;1.38;;;9.40;99.90;;;;;;4882634;29;20068;-72
2022/10/31 06:29:17;;;;;;;1.38;1.15;;;9.10;99.90;;;;;;4900837;29;20047;-72
2022/10/31 06:31:43;;;;;;;1.67;1.40;;;10.00;99.90;;;;;;4908050;29;20492;-72
2022/10/31 06:34:09;;;;;;;1.67;1.20;;;10.00;99.90;;;;;;4897965;29;20036;-72
2022/10/31 06:36:34;;;;;;;1.50;1.20;;;9.70;99.90;;;;;;4898674;29;20058;-72
2022/10/31 06:39:00;;;;;;;2.65;1.30;;;10.00;99.90;;;;;;4891939;29;20056;-72
2022/10/31 06:41:26;;;;;;;1.40;1.10;;;9.20;99.90;;;;;;4874522;29;20059;-72
2022/10/31 06:43:52;;;;;;;1.60;1.20;;;10.00;99.90;;;;;;4896869;29;20170;-72
2022/10/31 06:46:17;;;;;;;1.60;1.17;;;9.60;99.90;;;;;;4898741;29;20500;-72
2022/10/31 06:48:43;;;;;;;1.17;0.98;;;9.10;99.90;;;;;;4884185;29;20135;-75
2022/10/31 06:51:09;;;;;;;1.95;1.40;;;9.50;99.90;;;;;;4863536;29;20464;-73
2022/10/31 06:53:34;;;;;;;1.33;1.00;;;9.20;99.90;;;;;;4901568;29;20044;-73
2022/10/31 06:56:00;;;;;;;1.33;1.02;;;9.60;99.90;;;;;;4896063;29;20071;-73
2022/10/31 06:58:26;;;;;;;2.13;1.73;;;9.40;99.90;;;;;;4896918;29;20043;-73
2022/10/31 07:00:51;;;;;;;1.80;1.50;;;9.80;99.90;;;;;;4896282;29;20123;-73
2022/10/31 07:03:17;;;;;;;1.50;1.30;;;9.30;99.90;;;;;;4882802;29;20510;-73
2022/10/31 07:05:43;;;;;;;1.38;1.02;;;9.30;99.90;;;;;;4878817;29;20040;-73
2022/10/31 07:08:13;;;;;;;1.45;1.00;;;10.00;99.90;;;;;;4893924;29;20039;-74
2022/10/31 07:10:41;;;;;;;1.35;0.90;;;10.30;99.90;;;;;;4898164;29;20507;-73
2022/10/31 07:13:13;;;;;;;1.15;1.00;;;10.20;99.90;;;;;;4898791;29;20048;-74
2022/10/31 07:15:40;;;;;;;1.70;1.20;;;9.70;99.90;;;;;;4896048;29;20044;-73
2022/10/31 07:18:08;;;;;;;1.50;1.00;;;9.80;99.90;;;;;;4897698;29;20060;-73
2022/10/31 07:20:34;;;;;;;1.45;1.20;;;9.50;99.90;;;;;;4897754;29;20131;-73
2022/10/31 07:23:00;;;;;;;;;;;10.20;99.90;;;;;;4911154;29;20065;-73
2022/10/31 07:25:26;;;;;;;2.15;1.38;;;9.50;99.90;;;;;;4901867;29;19919;-73
2022/10/31 07:27:52;;;;;;;;;;;9.70;99.90;;;;;;4895462;29;20476;-73
2022/10/31 07:30:18;;;;;;;1.45;1.10;;;10.40;99.90;;;;;;4902949;29;19927;-73
2022/10/31 07:32:46;;;;;;;1.45;1.33;;;10.50;99.90;;;;;;4898660;29;20146;-74
2022/10/31 07:35:18;;;;;;;1.80;1.50;;;9.70;99.90;;;;;;4882826;29;20044;-74
2022/10/31 07:37:43;;;;;;;1.83;1.30;;;9.60;99.90;;;;;;4897519;29;20076;-73
2022/10/31 07:40:10;;;;;;;1.10;1.00;;;9.70;99.90;;;;;;4882224;29;20064;-73
2022/10/31 07:42:39;;;;;;;;;;;10.00;99.90;;;;;;4915621;29;20135;-73
2022/10/31 07:45:06;;;;;;;1.95;1.52;;;10.20;99.90;;;;;;4882669;29;19982;-74
2022/10/31 07:47:45;;;;;;;1.40;1.10;;;10.80;99.90;;;;;;4898171;29;20040;-73
2022/10/31 07:50:16;;;;;;;1.65;1.10;;;10.00;99.90;;;;;;4896247;29;20515;-73
2022/10/31 07:52:42;;;;;;;1.88;1.30;;;10.80;99.90;;;;;;4896490;29;20405;-73
2022/10/31 07:55:08;;;;;;;1.40;1.10;;;11.20;99.90;;;;;;4895849;29;20036;-73
2022/10/31 07:57:33;;;;;;;1.63;1.33;;;10.50;99.90;;;;;;4893699;29;20111;-74
2022/10/31 07:59:59;;;;;;;3.30;2.50;;;11.40;99.90;;;;;;4881046;29;20062;-72
2022/10/31 08:02:26;;;;;;;3.03;2.15;;;11.00;99.90;;;;;;4884446;29;20123;-72
2022/10/31 08:04:52;;;;;;;4.00;3.50;;;11.50;99.90;;;;;;4897562;29;20054;-72
2022/10/31 08:07:18;;;;;;;3.63;2.83;;;11.60;99.90;;;;;;4882805;29;20400;-73
2022/10/31 08:09:44;;;;;;;3.55;2.72;;;11.60;99.90;;;;;;4897962;29;20052;-72
2022/10/31 08:12:10;;;;;;;3.00;2.50;;;11.70;99.90;;;;;;4898673;29;20040;-72
2022/10/31 08:14:35;;;;;;;4.45;3.80;;;10.60;99.90;;;;;;4897736;29;20052;-72
2022/10/31 08:17:01;;;;;;;3.42;2.70;;;10.70;99.90;;;;;;4896804;29;20044;-72
2022/10/31 08:19:26;;;;;;;3.55;2.80;;;10.80;99.90;;;;;;4897370;29;20039;-73
2022/10/31 08:21:54;;;;;;;4.28;3.88;;;11.70;99.90;;;;;;4884111;29;20108;-72
2022/10/31 08:24:21;;;;;;;4.75;3.28;;;10.70;99.90;;;;;;4897943;29;20119;-72
2022/10/31 08:26:47;;;;;;;3.58;3.08;;;11.00;99.90;;;;;;4896974;29;20059;-72
2022/10/31 08:29:14;;;;;;;3.67;3.08;;;11.70;99.90;;;;;;4880835;29;20082;-73
2022/10/31 08:31:40;;;;;;;4.65;3.47;;;11.20;99.90;;;;;;4881310;29;20441;-73
2022/10/31 08:34:06;;;;;;;4.13;3.35;;;10.90;99.90;;;;;;4897395;29;20119;-73
2022/10/31 08:36:32;;;;;;;4.68;3.60;;;10.80;99.90;;;;;;4913445;29;20126;-73
2022/10/31 08:38:58;;;;;;;4.07;2.80;;;10.90;99.90;;;;;;4895506;29;20539;-73
2022/10/31 08:41:24;;;;;;;2.97;2.30;;;11.10;99.90;;;;;;4913833;29;20099;-73
2022/10/31 08:43:49;;;;;;;2.67;2.25;;;11.30;99.90;;;;;;4896497;29;20548;-73
2022/10/31 08:46:16;;;;;;;2.20;1.88;;;11.90;99.90;;;;;;4897540;29;20107;-71
2022/10/31 08:48:41;;;;;;;;;;;11.10;99.90;;;;;;4896865;29;20048;-79
2022/10/31 08:51:08;;;;;;;2.40;2.13;;;12.00;99.90;;;;;;4898634;29;19919;-79
2022/10/31 08:53:33;;;;;;;2.20;1.70;;;12.10;99.90;;;;;;4883001;29;20468;-79
2022/10/31 08:55:59;;;;;;;1.60;1.40;;;11.10;99.90;;;;;;4884223;29;20052;-79
2022/10/31 08:58:25;;;;;;;2.22;1.70;;;12.00;99.90;;;;;;4864201;29;20491;-79
2022/10/31 09:00:53;;;;;;;2.17;1.60;;;11.40;99.90;;;;;;4886356;29;20044;-80
2022/10/31 09:03:22;;;;;;;1.83;1.50;;;11.50;99.90;;;;;;4882559;29;20048;-72
2022/10/31 09:05:48;;;;;;;2.40;1.90;;;12.20;99.90;;;;;;4896399;29;20044;-73
2022/10/31 09:08:14;;;;;;;;;;;12.30;99.90;;;;;;4882266;29;20072;-72
2022/10/31 09:10:41;;;;;;;2.78;2.25;;;12.30;99.90;;;;;;4913302;29;19927;-72
2022/10/31 09:13:08;;;;;;;;;;;12.30;99.90;;;;;;4881189;29;20090;-72
2022/10/31 09:15:38;;;;;;;3.33;2.60;;;11.80;99.90;;;;;;4913662;29;19942;-72
2022/10/31 09:18:04;;;;;;;4.15;3.00;;;12.00;99.90;;;;;;4916495;29;20048;-72
2022/10/31 09:20:31;;;;;;;3.47;2.72;;;11.80;99.90;;;;;;4870536;29;20123;-72
2022/10/31 09:22:59;;;;;;;3.72;3.30;;;12.50;99.90;;;;;;4897261;29;20044;-72
2022/10/31 09:25:25;;;;;;;4.18;3.40;;;11.80;99.90;;;;;;4897816;29;20060;-72
2022/10/31 09:27:51;;;;;;;3.17;2.47;;;12.10;99.90;;;;;;4894668;29;20456;-73
2022/10/31 09:30:16;;;;;;;5.70;2.38;;;12.00;99.90;;;;;;4897649;29;20135;-72
2022/10/31 09:32:42;;;;;;;2.80;2.13;;;12.00;99.90;;;;;;4863649;29;20059;-72
2022/10/31 09:35:08;;;;;;;2.53;2.00;;;12.70;99.90;;;;;;4890495;29;20515;-73
2022/10/31 09:37:35;;;;;;;1.90;1.60;;;12.10;99.90;;;;;;4896922;29;20044;-73
2022/10/31 09:40:00;;;;;;;2.25;1.92;;;12.20;99.90;;;;;;4894106;29;20048;-72
2022/10/31 09:42:48;;;;;;;2.25;1.88;;;13.00;99.90;;;;;;4912055;29;20059;-73
2022/10/31 09:45:51;;;;;;;2.03;1.70;;;12.40;99.90;;;;;;4909117;29;20098;-72
2022/10/31 09:48:54;;;;;;;4.10;2.88;;;12.90;99.90;;;;;;4880192;29;20151;-73
2022/10/31 09:51:28;;;;;;;4.05;3.10;;;13.10;99.90;;;;;;4873533;29;20124;-72
2022/10/31 09:53:59;;;;;;;4.70;3.75;;;12.80;99.90;;;;;;4894669;29;20095;-72
2022/10/31 09:56:26;;;;;;;3.88;3.28;;;13.00;99.90;;;;;;4910479;29;20040;-73
2022/10/31 09:58:57;;;;;;;3.20;2.83;;;13.20;99.90;;;;;;4895495;29;20518;-73
2022/10/31 10:01:28;;;;;;;3.65;3.00;;;12.80;99.90;;;;;;4911242;29;20112;-72
2022/10/31 10:04:01;;;;;;;3.42;2.72;;;13.40;99.90;;;;;;4894765;29;20040;-73
2022/10/31 10:06:29;;;;;;;5.13;3.80;;;13.10;99.90;;;;;;4910671;29;20050;-73
2022/10/31 10:08:56;;;;;;;4.47;3.40;;;13.20;99.90;;;;;;4879592;29;20048;-73
2022/10/31 10:11:39;;;;;;;3.72;2.88;;;13.00;99.90;;;;;;4895327;29;20124;-74
2022/10/31 10:14:18;;;;;;;3.08;2.50;;;13.10;99.90;;;;;;4911693;29;20158;-74
2022/10/31 10:16:47;;;;;;;2.60;2.08;;;13.30;99.90;;;;;;4893075;29;20044;-74
2022/10/31 10:19:15;;;;;;;3.53;2.88;;;13.80;99.90;;;;;;4897785;29;20056;-74
2022/10/31 10:22:02;;;;;;;3.35;2.95;;;14.00;99.90;;;;;;4899117;29;20142;-73
2022/10/31 10:25:02;;;;;;;3.60;2.63;;;13.70;99.90;;;;;;4898305;29;20040;-74
2022/10/31 10:27:45;;;;;;;3.28;2.90;;;14.10;99.90;;;;;;4898829;29;20083;-74
2022/10/31 10:30:21;;;;;;;3.40;2.80;;;14.40;99.90;;;;;;4898869;29;20060;-72
2022/10/31 10:32:56;;;;;;;3.03;2.58;;;14.40;99.90;;;;;;4900747;29;20070;-73
2022/10/31 10:35:36;;;;;;;3.63;2.60;;;14.60;99.90;;;;;;4897304;29;20032;-73
2022/10/31 10:38:31;;;;;;;5.03;3.53;;;15.00;99.90;;;;;;4880994;29;20036;-74
2022/10/31 10:41:00;;;;;;;4.35;3.55;;;15.20;99.90;;;;;;4870159;29;20079;-74
2022/10/31 10:43:37;;;;;;;6.05;4.15;;;15.30;99.90;;;;;;4899188;29;20044;-74
2022/10/31 10:49:09;;;;;;;6.00;4.10;;;15.40;99.90;;;;;;4895052;29;20388;-74
2022/10/31 10:51:55;;;;;;;4.43;3.35;;;15.50;99.90;;;;;;4911886;29;20051;-72
2022/10/31 10:54:40;;;;;;;5.57;4.10;;;15.40;99.90;;;;;;4911007;29;20051;-73
2022/10/31 10:57:30;;;;;;;4.63;3.88;;;15.20;99.90;;;;;;4896958;29;20713;-74
2022/10/31 10:59:57;;;;;;;7.63;4.63;;;15.10;99.90;;;;;;4879836;29;20060;-74
2022/10/31 11:02:25;;;;;;;4.80;4.05;;;15.40;99.90;;;;;;4899732;29;20123;-73
2022/10/31 11:04:57;;;;;;;4.50;3.42;;;15.40;99.90;;;;;;4880799;29;20057;-74
2022/10/31 11:07:23;;;;;;;4.45;2.90;;;15.70;99.90;;;;;;4899829;29;20051;-75
2022/10/31 11:09:48;;;;;;;5.05;3.40;;;15.90;99.90;;;;;;4868329;29;20123;-74
2022/10/31 11:12:21;;;;;;;5.78;4.28;;;16.10;99.90;;;;;;4886104;29;20541;-74
2022/10/31 11:14:55;;;;;;;5.38;3.92;;;16.40;99.90;;;;;;4888765;29;20154;-74
2022/10/31 11:17:31;;;;;;;5.25;4.07;;;16.60;99.90;;;;;;4913343;29;20044;-73
2022/10/31 11:20:12;;;;;;;4.78;3.72;;;16.70;99.90;;;;;;4909711;29;20123;-73
2022/10/31 11:22:39;;;;;;;5.22;3.53;;;16.70;99.90;;;;;;4899495;29;20092;-73
2022/10/31 11:25:24;;;;;;;4.18;3.33;;;16.40;99.90;;;;;;4881522;29;20397;-73
2022/10/31 11:28:09;;;;;;;5.80;3.80;;;16.40;99.90;;;;;;4866961;29;20068;-73
2022/10/31 11:30:51;;;;;;;5.63;3.50;;;16.20;99.90;;;;;;4890430;29;20067;-73
2022/10/31 11:33:39;;;;;;;3.83;2.80;;;15.90;99.90;;;;;;4879127;29;20040;-73
2022/10/31 11:36:21;;;;;;;4.13;2.80;;;15.90;99.90;;;;;;4886380;29;20053;-73
2022/10/31 11:38:47;;;;;;;3.00;2.50;;;15.80;99.90;;;;;;4911028;29;20087;-73
2022/10/31 11:41:17;;;;;;;;;;;15.60;99.90;;;;;;4894351;29;20040;-73
2022/10/31 11:43:51;;;;;;;3.72;2.42;;;15.60;99.90;;;;;;4910915;29;19978;-73
2022/10/31 11:46:32;;;;;;;3.40;2.60;;;15.50;99.90;;;;;;4892610;29;20071;-74
2022/10/31 11:48:58;;;;;;;3.80;2.70;;;15.50;99.90;;;;;;4891026;29;20095;-75
2022/10/31 11:51:28;;;;;;;3.45;2.42;;;15.40;99.90;;;;;;4893734;29;20041;-73
2022/10/31 11:53:57;;;;;;;3.72;2.40;;;15.40;99.90;;;;;;4895329;29;20047;-73
2022/10/31 11:56:24;;;;;;;3.45;2.55;;;15.40;99.90;;;;;;4909704;29;20048;-74
2022/10/31 11:59:15;;;;;;;5.20;3.80;;;15.50;99.90;;;;;;4895246;29;20396;-73
2022/10/31 12:01:48;;;;;;;5.30;3.40;;;15.60;99.90;;;;;;4881506;29;20230;-73
2022/10/31 12:04:14;;;;;;;3.15;2.25;;;15.70;99.90;;;;;;4873494;29;20041;-73
2022/10/31 12:06:47;;;;;;;4.30;2.78;;;15.70;99.90;;;;;;4892825;29;20489;-73
2022/10/31 12:09:26;;;;;;;2.80;2.30;;;15.80;99.90;;;;;;4892849;29;20048;-73
2022/10/31 12:11:57;;;;;;;4.43;3.00;;;15.90;99.90;;;;;;4893966;29;20128;-73
2022/10/31 12:14:26;;;;;;;4.45;2.92;;;16.00;99.90;;;;;;4892477;29;20036;-73
2022/10/31 12:17:05;;;;;;;4.70;2.60;;;15.90;99.90;;;;;;4891231;29;20045;-73
2022/10/31 12:19:52;;;;;;;2.97;2.05;;;15.90;99.90;;;;;;4905407;29;20184;-72
2022/10/31 12:22:50;;;;;;;3.10;2.13;;;15.90;99.90;;;;;;4891629;29;20068;-73
2022/10/31 12:25:39;;;;;;;4.30;2.65;;;16.00;99.90;;;;;;4879114;29;20465;-73
2022/10/31 12:28:30;;;;;;;4.03;2.85;;;16.00;99.90;;;;;;4891236;29;20135;-72
2022/10/31 12:31:26;;;;;;;3.92;2.30;;;16.00;99.90;;;;;;4890834;29;20061;-72
2022/10/31 12:34:47;;;;;;;4.78;2.97;;;16.00;99.90;;;;;;4888523;29;20390;-73
2022/10/31 12:37:35;;;;;;;2.50;1.92;;;15.90;99.90;;;;;;4855327;29;20426;-73
2022/10/31 12:40:06;;;;;;;2.55;1.40;;;15.90;99.90;;;;;;4866894;29;20473;-74
2022/10/31 12:42:47;;;;;;;2.20;1.30;;;15.90;99.90;;;;;;4877592;29;20063;-75
2022/10/31 12:45:41;;;;;;;1.60;1.02;;;15.90;99.90;;;;;;4885311;29;20044;-75
2022/10/31 12:48:23;;;;;;;2.10;1.48;;;15.90;99.90;;;;;;4906798;29;20048;-75
2022/10/31 12:51:01;;;;;;;2.47;1.30;;;15.80;99.90;;;;;;4889270;29;20048;-76
2022/10/31 12:53:52;;;;;;;1.80;1.23;;;15.80;99.90;;;;;;4891933;29;20048;-75
2022/10/31 12:56:20;;;;;;;1.98;0.90;;;15.90;99.90;;;;;;4892323;29;20047;-75
2022/10/31 12:59:12;;;;;;;1.77;0.85;;;15.90;99.90;;;;;;4891088;29;20863;-75
2022/10/31 13:02:09;;;;;;;2.05;1.10;;;15.90;99.90;;;;;;4883176;29;20047;-75
2022/10/31 13:04:46;;;;;;;1.70;1.10;;;15.90;99.90;;;;;;4902999;29;20685;-72
2022/10/31 13:07:19;;;;;;;2.78;1.40;;;16.00;99.90;;;;;;4893008;29;20136;-73
2022/10/31 13:09:59;;;;;;;2.35;1.50;;;16.00;99.90;;;;;;4892624;29;20136;-72
2022/10/31 13:12:28;;;;;;;3.03;1.50;;;16.10;99.90;;;;;;4879008;29;20454;-73
2022/10/31 13:15:06;;;;;;;2.53;1.40;;;16.20;99.90;;;;;;4893640;29;20060;-74